sensor_id;sensor_type;location;lat;lon;timestamp;P1;durP1;ratioP1;P2;durP2;ratioP2
23404;SDS011;11875;49.356;2.718;2023-04-24T00:01:29;5.00;;;3.70;;
23404;SDS011;11875;49.356;2.718;2023-04-24T00:03:56;6.43;;;3.30;;
23404;SDS011;11875;49.356;2.718;2023-04-24T00:06:24;5.17;;;3.50;;
23404;SDS011;11875;49.356;2.718;2023-04-24T00:08:57;6.60;;;3.70;;
23404;SDS011;11875;49.356;2.718;2023-04-24T00:11:24;4.90;;;4.00;;
23404;SDS011;11875;49.356;2.718;2023-04-24T00:13:50;5.53;;;3.97;;
23404;SDS011;11875;49.356;2.718;2023-04-24T00:16:15;3.90;;;3.53;;
23404;SDS011;11875;49.356;2.718;2023-04-24T00:18:41;6.03;;;4.30;;
23404;SDS011;11875;49.356;2.718;2023-04-24T00:21:06;8.83;;;4.43;;
23404;SDS011;11875;49.356;2.718;2023-04-24T00:23:32;6.07;;;3.93;;
23404;SDS011;11875;49.356;2.718;2023-04-24T00:25:57;5.07;;;3.83;;
23404;SDS011;11875;49.356;2.718;2023-04-24T00:28:23;5.03;;;4.00;;
23404;SDS011;11875;49.356;2.718;2023-04-24T00:30:49;4.40;;;3.63;;
23404;SDS011;11875;49.356;2.718;2023-04-24T00:33:14;6.33;;;4.10;;
23404;SDS011;11875;49.356;2.718;2023-04-24T00:35:40;4.50;;;3.63;;
23404;SDS011;11875;49.356;2.718;2023-04-24T00:38:05;4.57;;;4.03;;
23404;SDS011;11875;49.356;2.718;2023-04-24T00:40:32;10.07;;;4.07;;
23404;SDS011;11875;49.356;2.718;2023-04-24T00:42:57;5.70;;;4.20;;
23404;SDS011;11875;49.356;2.718;2023-04-24T00:45:23;4.60;;;3.50;;
23404;SDS011;11875;49.356;2.718;2023-04-24T00:47:49;5.87;;;3.63;;
23404;SDS011;11875;49.356;2.718;2023-04-24T00:50:17;6.67;;;4.00;;
23404;SDS011;11875;49.356;2.718;2023-04-24T00:52:44;5.63;;;3.87;;
23404;SDS011;11875;49.356;2.718;2023-04-24T00:55:10;8.07;;;3.70;;
23404;SDS011;11875;49.356;2.718;2023-04-24T00:57:36;4.23;;;3.80;;
23404;SDS011;11875;49.356;2.718;2023-04-24T01:00:03;4.27;;;3.60;;
23404;SDS011;11875;49.356;2.718;2023-04-24T01:02:30;4.80;;;3.50;;
23404;SDS011;11875;49.356;2.718;2023-04-24T01:04:59;5.07;;;3.40;;
23404;SDS011;11875;49.356;2.718;2023-04-24T01:07:25;4.90;;;3.80;;
23404;SDS011;11875;49.356;2.718;2023-04-24T01:09:52;4.63;;;3.50;;
23404;SDS011;11875;49.356;2.718;2023-04-24T01:12:18;5.70;;;3.43;;
23404;SDS011;11875;49.356;2.718;2023-04-24T01:14:44;6.73;;;3.37;;
23404;SDS011;11875;49.356;2.718;2023-04-24T01:17:10;5.87;;;3.57;;
23404;SDS011;11875;49.356;2.718;2023-04-24T01:19:36;3.43;;;2.90;;
23404;SDS011;11875;49.356;2.718;2023-04-24T01:22:03;5.27;;;3.23;;
23404;SDS011;11875;49.356;2.718;2023-04-24T01:24:33;4.13;;;3.10;;
23404;SDS011;11875;49.356;2.718;2023-04-24T01:26:59;4.43;;;3.00;;
23404;SDS011;11875;49.356;2.718;2023-04-24T01:29:26;4.97;;;3.30;;
23404;SDS011;11875;49.356;2.718;2023-04-24T01:31:52;4.60;;;2.97;;
23404;SDS011;11875;49.356;2.718;2023-04-24T01:34:18;6.17;;;3.10;;
23404;SDS011;11875;49.356;2.718;2023-04-24T01:36:45;8.43;;;3.73;;
23404;SDS011;11875;49.356;2.718;2023-04-24T01:39:11;7.30;;;3.80;;
23404;SDS011;11875;49.356;2.718;2023-04-24T01:41:37;5.20;;;3.60;;
23404;SDS011;11875;49.356;2.718;2023-04-24T01:44:03;7.33;;;4.03;;
23404;SDS011;11875;49.356;2.718;2023-04-24T01:46:29;6.03;;;3.73;;
23404;SDS011;11875;49.356;2.718;2023-04-24T01:48:56;5.47;;;4.10;;
23404;SDS011;11875;49.356;2.718;2023-04-24T01:51:24;7.03;;;4.50;;
23404;SDS011;11875;49.356;2.718;2023-04-24T01:53:50;5.20;;;4.10;;
23404;SDS011;11875;49.356;2.718;2023-04-24T01:56:16;4.37;;;3.97;;
23404;SDS011;11875;49.356;2.718;2023-04-24T01:58:42;6.80;;;4.53;;
23404;SDS011;11875;49.356;2.718;2023-04-24T02:01:08;10.10;;;5.07;;
23404;SDS011;11875;49.356;2.718;2023-04-24T02:03:40;8.53;;;4.67;;
23404;SDS011;11875;49.356;2.718;2023-04-24T02:06:05;8.77;;;5.13;;
23404;SDS011;11875;49.356;2.718;2023-04-24T02:08:31;8.87;;;5.07;;
23404;SDS011;11875;49.356;2.718;2023-04-24T02:10:56;7.20;;;5.27;;
23404;SDS011;11875;49.356;2.718;2023-04-24T02:13:22;5.97;;;5.00;;
23404;SDS011;11875;49.356;2.718;2023-04-24T02:15:47;7.13;;;5.63;;
23404;SDS011;11875;49.356;2.718;2023-04-24T02:18:13;8.17;;;5.73;;
23404;SDS011;11875;49.356;2.718;2023-04-24T02:20:40;8.90;;;6.00;;
23404;SDS011;11875;49.356;2.718;2023-04-24T02:23:06;7.80;;;6.20;;
23404;SDS011;11875;49.356;2.718;2023-04-24T02:25:31;10.00;;;5.63;;
23404;SDS011;11875;49.356;2.718;2023-04-24T02:27:58;10.83;;;6.20;;
23404;SDS011;11875;49.356;2.718;2023-04-24T02:30:23;12.93;;;6.40;;
23404;SDS011;11875;49.356;2.718;2023-04-24T02:32:49;9.67;;;5.93;;
23404;SDS011;11875;49.356;2.718;2023-04-24T02:35:14;9.60;;;5.80;;
23404;SDS011;11875;49.356;2.718;2023-04-24T02:37:40;7.17;;;5.77;;
23404;SDS011;11875;49.356;2.718;2023-04-24T02:40:06;8.60;;;5.97;;
23404;SDS011;11875;49.356;2.718;2023-04-24T02:42:32;10.03;;;5.57;;
23404;SDS011;11875;49.356;2.718;2023-04-24T02:44:58;8.80;;;5.77;;
23404;SDS011;11875;49.356;2.718;2023-04-24T02:47:23;8.30;;;5.80;;
23404;SDS011;11875;49.356;2.718;2023-04-24T02:49:49;11.97;;;6.47;;
23404;SDS011;11875;49.356;2.718;2023-04-24T02:52:14;8.10;;;6.40;;
23404;SDS011;11875;49.356;2.718;2023-04-24T02:54:40;12.10;;;6.67;;
23404;SDS011;11875;49.356;2.718;2023-04-24T02:57:05;9.73;;;6.47;;
23404;SDS011;11875;49.356;2.718;2023-04-24T02:59:31;9.03;;;6.10;;
23404;SDS011;11875;49.356;2.718;2023-04-24T03:01:57;15.57;;;6.60;;
23404;SDS011;11875;49.356;2.718;2023-04-24T03:04:22;9.37;;;5.93;;
23404;SDS011;11875;49.356;2.718;2023-04-24T03:06:48;10.97;;;6.20;;
23404;SDS011;11875;49.356;2.718;2023-04-24T03:09:13;11.90;;;5.90;;
23404;SDS011;11875;49.356;2.718;2023-04-24T03:11:39;11.53;;;6.17;;
23404;SDS011;11875;49.356;2.718;2023-04-24T03:14:05;14.77;;;6.83;;
23404;SDS011;11875;49.356;2.718;2023-04-24T03:16:31;10.73;;;6.10;;
23404;SDS011;11875;49.356;2.718;2023-04-24T03:18:57;13.50;;;5.73;;
23404;SDS011;11875;49.356;2.718;2023-04-24T03:21:23;13.87;;;6.73;;
23404;SDS011;11875;49.356;2.718;2023-04-24T03:23:49;9.50;;;6.30;;
23404;SDS011;11875;49.356;2.718;2023-04-24T03:26:14;12.00;;;6.27;;
23404;SDS011;11875;49.356;2.718;2023-04-24T03:28:40;11.53;;;6.47;;
23404;SDS011;11875;49.356;2.718;2023-04-24T03:31:05;11.10;;;6.43;;
23404;SDS011;11875;49.356;2.718;2023-04-24T03:33:31;10.53;;;6.50;;
23404;SDS011;11875;49.356;2.718;2023-04-24T03:35:56;8.57;;;5.60;;
23404;SDS011;11875;49.356;2.718;2023-04-24T03:38:22;11.10;;;6.13;;
23404;SDS011;11875;49.356;2.718;2023-04-24T03:40:48;10.53;;;5.80;;
23404;SDS011;11875;49.356;2.718;2023-04-24T03:43:13;12.33;;;6.03;;
23404;SDS011;11875;49.356;2.718;2023-04-24T03:45:39;10.30;;;5.40;;
23404;SDS011;11875;49.356;2.718;2023-04-24T03:48:04;13.17;;;6.00;;
23404;SDS011;11875;49.356;2.718;2023-04-24T03:50:30;13.17;;;5.67;;
23404;SDS011;11875;49.356;2.718;2023-04-24T03:52:55;11.40;;;5.77;;
23404;SDS011;11875;49.356;2.718;2023-04-24T03:55:21;11.70;;;5.80;;
23404;SDS011;11875;49.356;2.718;2023-04-24T03:57:46;10.63;;;6.47;;
23404;SDS011;11875;49.356;2.718;2023-04-24T04:00:12;12.77;;;5.83;;
23404;SDS011;11875;49.356;2.718;2023-04-24T04:02:39;12.03;;;6.40;;
23404;SDS011;11875;49.356;2.718;2023-04-24T04:05:04;10.97;;;6.57;;
23404;SDS011;11875;49.356;2.718;2023-04-24T04:07:30;13.77;;;6.43;;
23404;SDS011;11875;49.356;2.718;2023-04-24T04:09:55;12.77;;;6.33;;
23404;SDS011;11875;49.356;2.718;2023-04-24T04:12:21;12.43;;;6.17;;
23404;SDS011;11875;49.356;2.718;2023-04-24T04:14:47;11.73;;;6.37;;
23404;SDS011;11875;49.356;2.718;2023-04-24T04:17:12;11.33;;;5.90;;
23404;SDS011;11875;49.356;2.718;2023-04-24T04:19:38;12.23;;;6.60;;
23404;SDS011;11875;49.356;2.718;2023-04-24T04:22:03;11.17;;;6.17;;
23404;SDS011;11875;49.356;2.718;2023-04-24T04:24:29;10.70;;;6.87;;
23404;SDS011;11875;49.356;2.718;2023-04-24T04:26:55;10.20;;;6.67;;
23404;SDS011;11875;49.356;2.718;2023-04-24T04:29:23;9.27;;;5.97;;
23404;SDS011;11875;49.356;2.718;2023-04-24T04:31:48;11.70;;;6.77;;
23404;SDS011;11875;49.356;2.718;2023-04-24T04:34:14;8.83;;;6.23;;
23404;SDS011;11875;49.356;2.718;2023-04-24T04:36:40;14.87;;;6.67;;
23404;SDS011;11875;49.356;2.718;2023-04-24T04:39:07;11.23;;;6.60;;
23404;SDS011;11875;49.356;2.718;2023-04-24T04:41:33;10.97;;;6.03;;
23404;SDS011;11875;49.356;2.718;2023-04-24T04:44:02;10.80;;;6.73;;
23404;SDS011;11875;49.356;2.718;2023-04-24T04:46:29;15.10;;;7.13;;
23404;SDS011;11875;49.356;2.718;2023-04-24T04:48:57;12.03;;;6.50;;
23404;SDS011;11875;49.356;2.718;2023-04-24T04:51:24;12.57;;;6.30;;
23404;SDS011;11875;49.356;2.718;2023-04-24T04:53:50;10.97;;;6.17;;
23404;SDS011;11875;49.356;2.718;2023-04-24T04:56:15;11.53;;;5.80;;
23404;SDS011;11875;49.356;2.718;2023-04-24T04:58:41;14.83;;;6.43;;
23404;SDS011;11875;49.356;2.718;2023-04-24T05:01:06;9.47;;;6.33;;
23404;SDS011;11875;49.356;2.718;2023-04-24T05:03:32;11.13;;;6.30;;
23404;SDS011;11875;49.356;2.718;2023-04-24T05:05:58;11.33;;;6.70;;
23404;SDS011;11875;49.356;2.718;2023-04-24T05:08:24;9.17;;;6.63;;
23404;SDS011;11875;49.356;2.718;2023-04-24T05:10:49;11.23;;;6.30;;
23404;SDS011;11875;49.356;2.718;2023-04-24T05:13:15;10.87;;;6.60;;
23404;SDS011;11875;49.356;2.718;2023-04-24T05:15:40;10.67;;;6.67;;
23404;SDS011;11875;49.356;2.718;2023-04-24T05:18:06;13.60;;;6.60;;
23404;SDS011;11875;49.356;2.718;2023-04-24T05:20:32;12.17;;;6.23;;
23404;SDS011;11875;49.356;2.718;2023-04-24T05:22:57;13.63;;;6.77;;
23404;SDS011;11875;49.356;2.718;2023-04-24T05:25:23;10.43;;;7.17;;
23404;SDS011;11875;49.356;2.718;2023-04-24T05:27:48;11.03;;;6.53;;
23404;SDS011;11875;49.356;2.718;2023-04-24T05:30:14;11.23;;;6.87;;
23404;SDS011;11875;49.356;2.718;2023-04-24T05:32:40;10.87;;;7.07;;
23404;SDS011;11875;49.356;2.718;2023-04-24T05:35:06;15.00;;;6.77;;
23404;SDS011;11875;49.356;2.718;2023-04-24T05:37:31;8.63;;;6.10;;
23404;SDS011;11875;49.356;2.718;2023-04-24T05:39:57;13.37;;;6.87;;
23404;SDS011;11875;49.356;2.718;2023-04-24T05:42:23;10.40;;;7.10;;
23404;SDS011;11875;49.356;2.718;2023-04-24T05:44:49;14.47;;;7.40;;
23404;SDS011;11875;49.356;2.718;2023-04-24T05:47:15;12.20;;;7.27;;
23404;SDS011;11875;49.356;2.718;2023-04-24T05:49:41;9.83;;;7.57;;
23404;SDS011;11875;49.356;2.718;2023-04-24T05:52:06;15.83;;;7.10;;
23404;SDS011;11875;49.356;2.718;2023-04-24T05:54:33;11.27;;;7.13;;
23404;SDS011;11875;49.356;2.718;2023-04-24T05:56:59;11.37;;;6.10;;
23404;SDS011;11875;49.356;2.718;2023-04-24T05:59:29;13.37;;;6.50;;
23404;SDS011;11875;49.356;2.718;2023-04-24T06:01:54;12.83;;;7.13;;
23404;SDS011;11875;49.356;2.718;2023-04-24T06:04:20;10.60;;;6.77;;
23404;SDS011;11875;49.356;2.718;2023-04-24T06:06:46;10.07;;;7.07;;
23404;SDS011;11875;49.356;2.718;2023-04-24T06:09:15;14.03;;;6.83;;
23404;SDS011;11875;49.356;2.718;2023-04-24T06:11:42;11.60;;;7.03;;
23404;SDS011;11875;49.356;2.718;2023-04-24T06:14:07;11.70;;;6.23;;
23404;SDS011;11875;49.356;2.718;2023-04-24T06:16:33;10.90;;;6.93;;
23404;SDS011;11875;49.356;2.718;2023-04-24T06:18:58;11.63;;;6.73;;
23404;SDS011;11875;49.356;2.718;2023-04-24T06:21:24;15.43;;;6.70;;
23404;SDS011;11875;49.356;2.718;2023-04-24T06:23:50;10.83;;;6.60;;
23404;SDS011;11875;49.356;2.718;2023-04-24T06:26:16;16.80;;;7.63;;
23404;SDS011;11875;49.356;2.718;2023-04-24T06:28:41;10.53;;;6.03;;
23404;SDS011;11875;49.356;2.718;2023-04-24T06:31:07;11.10;;;6.57;;
23404;SDS011;11875;49.356;2.718;2023-04-24T06:33:32;11.27;;;6.17;;
23404;SDS011;11875;49.356;2.718;2023-04-24T06:35:58;13.20;;;6.60;;
23404;SDS011;11875;49.356;2.718;2023-04-24T06:38:24;15.27;;;7.63;;
23404;SDS011;11875;49.356;2.718;2023-04-24T06:40:50;14.97;;;7.90;;
23404;SDS011;11875;49.356;2.718;2023-04-24T06:43:16;10.07;;;6.40;;
23404;SDS011;11875;49.356;2.718;2023-04-24T06:45:41;12.33;;;6.73;;
23404;SDS011;11875;49.356;2.718;2023-04-24T06:48:08;15.73;;;7.47;;
23404;SDS011;11875;49.356;2.718;2023-04-24T06:50:34;11.40;;;7.60;;
23404;SDS011;11875;49.356;2.718;2023-04-24T06:53:00;13.27;;;7.87;;
23404;SDS011;11875;49.356;2.718;2023-04-24T06:55:26;13.93;;;8.13;;
23404;SDS011;11875;49.356;2.718;2023-04-24T06:57:51;12.53;;;8.23;;
23404;SDS011;11875;49.356;2.718;2023-04-24T07:00:17;14.90;;;8.20;;
23404;SDS011;11875;49.356;2.718;2023-04-24T07:02:43;10.87;;;7.80;;
23404;SDS011;11875;49.356;2.718;2023-04-24T07:05:08;10.87;;;7.53;;
23404;SDS011;11875;49.356;2.718;2023-04-24T07:07:34;10.63;;;7.13;;
23404;SDS011;11875;49.356;2.718;2023-04-24T07:10:02;12.63;;;7.27;;
23404;SDS011;11875;49.356;2.718;2023-04-24T07:12:29;13.97;;;8.13;;
23404;SDS011;11875;49.356;2.718;2023-04-24T07:14:54;11.00;;;7.53;;
23404;SDS011;11875;49.356;2.718;2023-04-24T07:17:20;11.27;;;7.43;;
23404;SDS011;11875;49.356;2.718;2023-04-24T07:19:46;10.70;;;7.43;;
23404;SDS011;11875;49.356;2.718;2023-04-24T07:22:11;9.23;;;7.10;;
23404;SDS011;11875;49.356;2.718;2023-04-24T07:24:41;12.30;;;7.60;;
23404;SDS011;11875;49.356;2.718;2023-04-24T07:27:08;12.97;;;8.37;;
23404;SDS011;11875;49.356;2.718;2023-04-24T07:29:34;14.13;;;8.43;;
23404;SDS011;11875;49.356;2.718;2023-04-24T07:32:00;11.60;;;7.83;;
23404;SDS011;11875;49.356;2.718;2023-04-24T07:34:26;17.33;;;11.17;;
23404;SDS011;11875;49.356;2.718;2023-04-24T07:36:51;11.53;;;7.40;;
23404;SDS011;11875;49.356;2.718;2023-04-24T07:39:17;12.23;;;8.07;;
23404;SDS011;11875;49.356;2.718;2023-04-24T07:41:43;11.60;;;8.10;;
23404;SDS011;11875;49.356;2.718;2023-04-24T07:44:09;11.57;;;7.47;;
23404;SDS011;11875;49.356;2.718;2023-04-24T07:46:35;12.97;;;7.90;;
23404;SDS011;11875;49.356;2.718;2023-04-24T07:49:00;8.98;;;7.03;;
23404;SDS011;11875;49.356;2.718;2023-04-24T07:51:26;9.65;;;7.35;;
23404;SDS011;11875;49.356;2.718;2023-04-24T07:53:53;9.95;;;7.20;;
23404;SDS011;11875;49.356;2.718;2023-04-24T07:56:20;10.32;;;7.43;;
23404;SDS011;11875;49.356;2.718;2023-04-24T07:58:45;9.98;;;7.50;;
23404;SDS011;11875;49.356;2.718;2023-04-24T08:01:11;8.98;;;6.65;;
23404;SDS011;11875;49.356;2.718;2023-04-24T08:03:36;11.77;;;7.53;;
23404;SDS011;11875;49.356;2.718;2023-04-24T08:06:02;9.65;;;7.38;;
23404;SDS011;11875;49.356;2.718;2023-04-24T08:08:28;10.85;;;7.78;;
23404;SDS011;11875;49.356;2.718;2023-04-24T08:10:53;12.05;;;7.82;;
23404;SDS011;11875;49.356;2.718;2023-04-24T08:13:19;10.02;;;8.45;;
23404;SDS011;11875;49.356;2.718;2023-04-24T08:15:45;14.23;;;8.98;;
23404;SDS011;11875;49.356;2.718;2023-04-24T08:18:11;14.43;;;8.68;;
23404;SDS011;11875;49.356;2.718;2023-04-24T08:20:38;9.73;;;8.70;;
23404;SDS011;11875;49.356;2.718;2023-04-24T08:23:04;11.10;;;8.35;;
23404;SDS011;11875;49.356;2.718;2023-04-24T08:25:30;12.18;;;8.85;;
23404;SDS011;11875;49.356;2.718;2023-04-24T08:27:55;9.07;;;7.47;;
23404;SDS011;11875;49.356;2.718;2023-04-24T08:30:21;11.25;;;8.10;;
23404;SDS011;11875;49.356;2.718;2023-04-24T08:32:47;12.18;;;7.55;;
23404;SDS011;11875;49.356;2.718;2023-04-24T08:35:13;12.77;;;7.75;;
23404;SDS011;11875;49.356;2.718;2023-04-24T08:37:39;12.13;;;7.97;;
23404;SDS011;11875;49.356;2.718;2023-04-24T08:40:06;14.10;;;8.07;;
23404;SDS011;11875;49.356;2.718;2023-04-24T08:42:37;13.18;;;8.52;;
23404;SDS011;11875;49.356;2.718;2023-04-24T08:45:03;10.80;;;7.78;;
23404;SDS011;11875;49.356;2.718;2023-04-24T08:47:29;13.25;;;8.18;;
23404;SDS011;11875;49.356;2.718;2023-04-24T08:49:56;13.00;;;7.93;;
23404;SDS011;11875;49.356;2.718;2023-04-24T08:52:22;10.60;;;7.57;;
23404;SDS011;11875;49.356;2.718;2023-04-24T08:54:48;9.85;;;7.30;;
23404;SDS011;11875;49.356;2.718;2023-04-24T08:57:14;13.50;;;8.25;;
23404;SDS011;11875;49.356;2.718;2023-04-24T08:59:40;14.38;;;9.30;;
23404;SDS011;11875;49.356;2.718;2023-04-24T09:02:05;9.75;;;7.72;;
23404;SDS011;11875;49.356;2.718;2023-04-24T09:04:34;12.52;;;8.52;;
23404;SDS011;11875;49.356;2.718;2023-04-24T09:07:01;12.95;;;8.82;;
23404;SDS011;11875;49.356;2.718;2023-04-24T09:09:29;10.85;;;8.43;;
23404;SDS011;11875;49.356;2.718;2023-04-24T09:11:57;10.73;;;7.45;;
23404;SDS011;11875;49.356;2.718;2023-04-24T09:14:23;11.07;;;7.95;;
23404;SDS011;11875;49.356;2.718;2023-04-24T09:16:49;11.32;;;8.15;;
23404;SDS011;11875;49.356;2.718;2023-04-24T09:19:15;11.88;;;8.27;;
23404;SDS011;11875;49.356;2.718;2023-04-24T09:21:41;9.65;;;7.47;;
23404;SDS011;11875;49.356;2.718;2023-04-24T09:24:15;11.60;;;7.35;;
23404;SDS011;11875;49.356;2.718;2023-04-24T09:26:43;11.82;;;7.40;;
23404;SDS011;11875;49.356;2.718;2023-04-24T09:29:13;12.88;;;8.48;;
23404;SDS011;11875;49.356;2.718;2023-04-24T09:31:42;8.57;;;7.47;;
23404;SDS011;11875;49.356;2.718;2023-04-24T09:34:09;15.15;;;7.25;;
23404;SDS011;11875;49.356;2.718;2023-04-24T09:36:35;13.82;;;8.38;;
23404;SDS011;11875;49.356;2.718;2023-04-24T09:39:07;9.02;;;7.78;;
23404;SDS011;11875;49.356;2.718;2023-04-24T09:41:44;12.75;;;8.45;;
23404;SDS011;11875;49.356;2.718;2023-04-24T09:44:18;15.50;;;8.88;;
23404;SDS011;11875;49.356;2.718;2023-04-24T09:46:48;11.65;;;8.98;;
23404;SDS011;11875;49.356;2.718;2023-04-24T09:49:27;20.23;;;10.88;;
23404;SDS011;11875;49.356;2.718;2023-04-24T09:52:04;17.02;;;10.43;;
23404;SDS011;11875;49.356;2.718;2023-04-24T09:54:31;15.18;;;10.70;;
23404;SDS011;11875;49.356;2.718;2023-04-24T09:56:56;15.05;;;10.95;;
23404;SDS011;11875;49.356;2.718;2023-04-24T09:59:22;17.42;;;10.98;;
23404;SDS011;11875;49.356;2.718;2023-04-24T10:01:48;14.00;;;10.90;;
23404;SDS011;11875;49.356;2.718;2023-04-24T10:04:24;14.23;;;9.80;;
23404;SDS011;11875;49.356;2.718;2023-04-24T10:06:52;13.05;;;10.38;;
23404;SDS011;11875;49.356;2.718;2023-04-24T10:09:19;14.85;;;11.38;;
23404;SDS011;11875;49.356;2.718;2023-04-24T10:11:49;20.65;;;12.77;;
23404;SDS011;11875;49.356;2.718;2023-04-24T10:14:19;17.53;;;13.03;;
23404;SDS011;11875;49.356;2.718;2023-04-24T10:16:49;16.38;;;12.30;;
23404;SDS011;11875;49.356;2.718;2023-04-24T10:19:17;16.70;;;11.18;;
23404;SDS011;11875;49.356;2.718;2023-04-24T10:21:46;15.00;;;11.23;;
23404;SDS011;11875;49.356;2.718;2023-04-24T10:24:15;12.75;;;10.93;;
23404;SDS011;11875;49.356;2.718;2023-04-24T10:26:43;20.33;;;12.80;;
23404;SDS011;11875;49.356;2.718;2023-04-24T10:29:11;20.50;;;12.43;;
23404;SDS011;11875;49.356;2.718;2023-04-24T10:31:38;16.92;;;13.50;;
23404;SDS011;11875;49.356;2.718;2023-04-24T10:34:04;19.45;;;12.43;;
23404;SDS011;11875;49.356;2.718;2023-04-24T10:36:31;14.00;;;11.07;;
23404;SDS011;11875;49.356;2.718;2023-04-24T10:38:59;18.95;;;12.68;;
23404;SDS011;11875;49.356;2.718;2023-04-24T10:41:27;15.75;;;11.57;;
23404;SDS011;11875;49.356;2.718;2023-04-24T10:44:10;20.70;;;12.75;;
23404;SDS011;11875;49.356;2.718;2023-04-24T10:46:38;15.10;;;11.60;;
23404;SDS011;11875;49.356;2.718;2023-04-24T10:49:07;16.10;;;12.18;;
23404;SDS011;11875;49.356;2.718;2023-04-24T10:54:22;16.98;;;11.20;;
23404;SDS011;11875;49.356;2.718;2023-04-24T10:56:48;13.88;;;10.65;;
23404;SDS011;11875;49.356;2.718;2023-04-24T10:59:23;14.77;;;11.40;;
23404;SDS011;11875;49.356;2.718;2023-04-24T11:01:53;19.55;;;12.50;;
23404;SDS011;11875;49.356;2.718;2023-04-24T11:04:29;16.05;;;12.15;;
23404;SDS011;11875;49.356;2.718;2023-04-24T11:06:56;17.90;;;15.18;;
23404;SDS011;11875;49.356;2.718;2023-04-24T11:09:22;12.95;;;10.32;;
23404;SDS011;11875;49.356;2.718;2023-04-24T11:12:07;12.65;;;10.15;;
23404;SDS011;11875;49.356;2.718;2023-04-24T11:17:37;14.00;;;10.35;;
23404;SDS011;11875;49.356;2.718;2023-04-24T11:20:06;13.00;;;9.68;;
23404;SDS011;11875;49.356;2.718;2023-04-24T11:22:34;14.00;;;10.60;;
23404;SDS011;11875;49.356;2.718;2023-04-24T11:25:04;13.07;;;10.35;;
23404;SDS011;11875;49.356;2.718;2023-04-24T11:27:32;12.20;;;9.55;;
23404;SDS011;11875;49.356;2.718;2023-04-24T11:30:08;11.32;;;9.27;;
23404;SDS011;11875;49.356;2.718;2023-04-24T11:35:17;10.43;;;8.68;;
23404;SDS011;11875;49.356;2.718;2023-04-24T11:37:46;12.00;;;8.48;;
23404;SDS011;11875;49.356;2.718;2023-04-24T11:40:14;24.35;;;14.25;;
23404;SDS011;11875;49.356;2.718;2023-04-24T11:42:42;8.52;;;7.45;;
23404;SDS011;11875;49.356;2.718;2023-04-24T11:47:35;12.73;;;8.10;;
23404;SDS011;11875;49.356;2.718;2023-04-24T11:50:01;10.35;;;7.65;;
23404;SDS011;11875;49.356;2.718;2023-04-24T11:52:28;11.65;;;8.52;;
23404;SDS011;11875;49.356;2.718;2023-04-24T11:54:54;15.50;;;9.10;;
23404;SDS011;11875;49.356;2.718;2023-04-24T11:57:21;10.52;;;9.07;;
23404;SDS011;11875;49.356;2.718;2023-04-24T11:59:49;10.10;;;8.18;;
23404;SDS011;11875;49.356;2.718;2023-04-24T12:02:24;12.38;;;8.70;;
23404;SDS011;11875;49.356;2.718;2023-04-24T12:04:52;11.95;;;9.88;;
23404;SDS011;11875;49.356;2.718;2023-04-24T12:07:19;12.98;;;9.60;;
23404;SDS011;11875;49.356;2.718;2023-04-24T12:09:50;10.20;;;8.43;;
23404;SDS011;11875;49.356;2.718;2023-04-24T12:12:24;10.73;;;7.60;;
23404;SDS011;11875;49.356;2.718;2023-04-24T12:14:55;8.02;;;6.00;;
23404;SDS011;11875;49.356;2.718;2023-04-24T12:17:29;7.22;;;5.22;;
23404;SDS011;11875;49.356;2.718;2023-04-24T12:20:00;6.05;;;5.32;;
23404;SDS011;11875;49.356;2.718;2023-04-24T12:22:28;8.23;;;5.50;;
23404;SDS011;11875;49.356;2.718;2023-04-24T12:25:12;5.65;;;4.72;;
23404;SDS011;11875;49.356;2.718;2023-04-24T12:27:39;6.15;;;4.20;;
23404;SDS011;11875;49.356;2.718;2023-04-24T12:30:05;5.75;;;4.22;;
23404;SDS011;11875;49.356;2.718;2023-04-24T12:32:40;5.35;;;3.95;;
23404;SDS011;11875;49.356;2.718;2023-04-24T12:35:06;5.43;;;4.43;;
23404;SDS011;11875;49.356;2.718;2023-04-24T12:37:32;7.63;;;4.85;;
23404;SDS011;11875;49.356;2.718;2023-04-24T12:39:59;5.65;;;4.43;;
23404;SDS011;11875;49.356;2.718;2023-04-24T12:42:27;6.00;;;4.30;;
23404;SDS011;11875;49.356;2.718;2023-04-24T12:44:58;4.85;;;3.95;;
23404;SDS011;11875;49.356;2.718;2023-04-24T12:47:48;4.87;;;4.33;;
23404;SDS011;11875;49.356;2.718;2023-04-24T12:50:15;6.30;;;4.28;;
23404;SDS011;11875;49.356;2.718;2023-04-24T12:52:41;5.93;;;4.57;;
23404;SDS011;11875;49.356;2.718;2023-04-24T12:55:07;5.43;;;4.88;;
23404;SDS011;11875;49.356;2.718;2023-04-24T12:57:34;7.05;;;5.05;;
23404;SDS011;11875;49.356;2.718;2023-04-24T13:00:01;7.55;;;4.97;;
23404;SDS011;11875;49.356;2.718;2023-04-24T13:02:28;7.03;;;5.53;;
23404;SDS011;11875;49.356;2.718;2023-04-24T13:04:56;8.20;;;5.95;;
23404;SDS011;11875;49.356;2.718;2023-04-24T13:07:22;11.48;;;6.30;;
23404;SDS011;11875;49.356;2.718;2023-04-24T13:09:48;8.80;;;6.90;;
23404;SDS011;11875;49.356;2.718;2023-04-24T13:12:15;9.15;;;7.18;;
23404;SDS011;11875;49.356;2.718;2023-04-24T13:14:41;8.63;;;6.57;;
23404;SDS011;11875;49.356;2.718;2023-04-24T13:17:06;11.98;;;7.88;;
23404;SDS011;11875;49.356;2.718;2023-04-24T13:19:36;9.60;;;7.18;;
23404;SDS011;11875;49.356;2.718;2023-04-24T13:22:03;10.95;;;7.57;;
23404;SDS011;11875;49.356;2.718;2023-04-24T13:24:29;19.80;;;7.38;;
23404;SDS011;11875;49.356;2.718;2023-04-24T13:26:56;10.75;;;8.52;;
23404;SDS011;11875;49.356;2.718;2023-04-24T13:29:21;9.95;;;7.80;;
23404;SDS011;11875;49.356;2.718;2023-04-24T13:31:49;13.45;;;8.15;;
23404;SDS011;11875;49.356;2.718;2023-04-24T13:34:16;11.43;;;7.82;;
23404;SDS011;11875;49.356;2.718;2023-04-24T13:36:42;12.15;;;7.70;;
23404;SDS011;11875;49.356;2.718;2023-04-24T13:39:08;11.38;;;10.18;;
23404;SDS011;11875;49.356;2.718;2023-04-24T13:41:33;12.68;;;8.43;;
23404;SDS011;11875;49.356;2.718;2023-04-24T13:44:00;10.18;;;8.05;;
23404;SDS011;11875;49.356;2.718;2023-04-24T13:46:26;10.25;;;7.28;;
23404;SDS011;11875;49.356;2.718;2023-04-24T13:48:51;12.75;;;7.20;;
23404;SDS011;11875;49.356;2.718;2023-04-24T13:51:17;9.57;;;7.15;;
23404;SDS011;11875;49.356;2.718;2023-04-24T13:53:43;8.05;;;6.40;;
23404;SDS011;11875;49.356;2.718;2023-04-24T13:56:08;11.40;;;6.20;;
23404;SDS011;11875;49.356;2.718;2023-04-24T13:58:34;10.40;;;5.72;;
23404;SDS011;11875;49.356;2.718;2023-04-24T14:01:04;6.20;;;5.55;;
23404;SDS011;11875;49.356;2.718;2023-04-24T14:03:29;6.47;;;4.88;;
23404;SDS011;11875;49.356;2.718;2023-04-24T14:05:55;10.82;;;4.80;;
23404;SDS011;11875;49.356;2.718;2023-04-24T14:08:21;6.70;;;4.63;;
23404;SDS011;11875;49.356;2.718;2023-04-24T14:10:47;6.70;;;4.85;;
23404;SDS011;11875;49.356;2.718;2023-04-24T14:13:12;10.30;;;4.93;;
23404;SDS011;11875;49.356;2.718;2023-04-24T14:15:38;10.27;;;5.72;;
23404;SDS011;11875;49.356;2.718;2023-04-24T14:18:04;9.52;;;5.47;;
23404;SDS011;11875;49.356;2.718;2023-04-24T14:20:30;10.23;;;5.35;;
23404;SDS011;11875;49.356;2.718;2023-04-24T14:22:56;9.52;;;5.47;;
23404;SDS011;11875;49.356;2.718;2023-04-24T14:25:25;7.97;;;5.20;;
23404;SDS011;11875;49.356;2.718;2023-04-24T14:27:51;8.13;;;5.38;;
23404;SDS011;11875;49.356;2.718;2023-04-24T14:30:17;10.50;;;5.07;;
23404;SDS011;11875;49.356;2.718;2023-04-24T14:32:43;5.63;;;4.57;;
23404;SDS011;11875;49.356;2.718;2023-04-24T14:35:09;11.00;;;4.88;;
23404;SDS011;11875;49.356;2.718;2023-04-24T14:37:34;6.97;;;4.53;;
23404;SDS011;11875;49.356;2.718;2023-04-24T14:40:01;6.15;;;4.45;;
23404;SDS011;11875;49.356;2.718;2023-04-24T14:42:27;5.28;;;4.53;;
23404;SDS011;11875;49.356;2.718;2023-04-24T14:44:53;5.88;;;4.70;;
23404;SDS011;11875;49.356;2.718;2023-04-24T14:47:19;5.70;;;4.85;;